Map

Track Data

SID SEASON NUMBER BASIN SUBBASIN NAME ISO_TIME NATURE LAT LON WMO_WIND WMO_PRES WMO_AGENCY TRACK_TYPE DIST2LAND LANDFALL IFLAG USA_AGENCY USA_ATCF_ID USA_LAT USA_LON USA_RECORD USA_STATUS USA_WIND USA_PRES USA_SSHS USA_R34_NE USA_R34_SE USA_R34_SW USA_R34_NW USA_R50_NE USA_R50_SE USA_R50_SW USA_R50_NW USA_R64_NE USA_R64_SE USA_R64_SW USA_R64_NW USA_POCI USA_ROCI USA_RMW USA_EYE TOKYO_LAT TOKYO_LON TOKYO_GRADE TOKYO_WIND TOKYO_PRES TOKYO_R50_DIR TOKYO_R50_LONG TOKYO_R50_SHORT TOKYO_R30_DIR TOKYO_R30_LONG TOKYO_R30_SHORT TOKYO_LAND CMA_LAT CMA_LON CMA_CAT CMA_WIND CMA_PRES HKO_LAT HKO_LON HKO_CAT HKO_WIND HKO_PRES NEWDELHI_LAT NEWDELHI_LON NEWDELHI_GRADE NEWDELHI_WIND NEWDELHI_PRES NEWDELHI_CI NEWDELHI_DP NEWDELHI_POCI REUNION_LAT REUNION_LON REUNION_TYPE REUNION_WIND REUNION_PRES REUNION_TNUM REUNION_CI REUNION_RMW REUNION_R34_NE REUNION_R34_SE REUNION_R34_SW REUNION_R34_NW REUNION_R50_NE REUNION_R50_SE REUNION_R50_SW REUNION_R50_NW REUNION_R64_NE REUNION_R64_SE REUNION_R64_SW REUNION_R64_NW BOM_LAT BOM_LON BOM_TYPE BOM_WIND BOM_PRES BOM_TNUM BOM_CI BOM_RMW BOM_R34_NE BOM_R34_SE BOM_R34_SW BOM_R34_NW BOM_R50_NE BOM_R50_SE BOM_R50_SW BOM_R50_NW BOM_R64_NE BOM_R64_SE BOM_R64_SW BOM_R64_NW BOM_ROCI BOM_POCI BOM_EYE BOM_POS_METHOD BOM_PRES_METHOD NADI_LAT NADI_LON NADI_CAT NADI_WIND NADI_PRES WELLINGTON_LAT WELLINGTON_LON WELLINGTON_WIND WELLINGTON_PRES DS824_LAT DS824_LON DS824_STAGE DS824_WIND DS824_PRES TD9636_LAT TD9636_LON TD9636_STAGE TD9636_WIND TD9636_PRES TD9635_LAT TD9635_LON TD9635_WIND TD9635_PRES TD9635_ROCI NEUMANN_LAT NEUMANN_LON NEUMANN_CLASS NEUMANN_WIND NEUMANN_PRES MLC_LAT MLC_LON MLC_CLASS MLC_WIND MLC_PRES USA_GUST BOM_GUST BOM_GUST_PER REUNION_GUST REUNION_GUST_PER USA_SEAHGT USA_SEARAD_NE USA_SEARAD_SE USA_SEARAD_SW USA_SEARAD_NW STORM_SPEED STORM_DIR
1912322N08146 1912 63 WP MM NOT_NAMED 1912-11-17 09:00:00 NR 7.90000 145.500 main 1127 1127 __________O___ -1 7.90000 145.500 7 15 297
1912322N08146 1912 63 WP MM NOT_NAMED 1912-11-17 12:00:00 NR 8.22738 144.842 main 1171 1171 __________P___ -1 8.22738 144.842 7 15 296
1912322N08146 1912 63 WP MM NOT_NAMED 1912-11-17 15:00:00 NR 8.54344 144.176 main 1217 1217 __________P___ -1 8.54344 144.176 7 15 295
1912322N08146 1912 63 WP MM NOT_NAMED 1912-11-17 18:00:00 NR 8.83778 143.498 main 1268 1268 __________P___ -1 8.83778 143.498 7 15 292
1912322N08146 1912 63 WP MM NOT_NAMED 1912-11-17 21:00:00 NR 9.10000 142.800 main 1303 1295 __________O___ -1 9.10000 142.800 7 15 289
1912322N08146 1912 63 WP MM NOT_NAMED 1912-11-18 00:00:00 NR 9.32566 142.077 main 1295 1292 __________P___ -1 9.32566 142.077 7 15 287
1912322N08146 1912 63 WP MM NOT_NAMED 1912-11-18 03:00:00 NR 9.53407 141.323 main 1290 1286 __________P___ -1 9.53407 141.323 7 16 286
1912322N08146 1912 63 WP MM NOT_NAMED 1912-11-18 06:00:00 NR 9.75045 140.533 main 1292 1278 __________P___ -1 9.75045 140.533 7 17 286
1912322N08146 1912 63 WP MM NOT_NAMED 1912-11-18 09:00:00 NR 10.0000 139.700 main 1281 1277 __________O___ -1 10.0000 139.700 4 19 289
1912322N08146 1912 63 WP MM NOT_NAMED 1912-11-18 12:00:00 NR 10.3435 138.746 main 1279 1275 __________P___ -1 10.3435 138.746 4 20 291
1912322N08146 1912 63 WP MM NOT_NAMED 1912-11-18 15:00:00 NR 10.7166 137.762 main 1275 1187 __________P___ -1 10.7166 137.762 4 20 291
1912322N08146 1912 63 WP MM NOT_NAMED 1912-11-18 18:00:00 NR 11.0812 136.821 main 1179 1100 __________P___ -1 11.0812 136.821 4 19 292
1912322N08146 1912 63 WP MM NOT_NAMED 1912-11-18 21:00:00 NR 11.4000 136.000 main 1100 1042 __________O___ -1 11.4000 136.000 4 15 291
1912322N08146 1912 63 WP MM NOT_NAMED 1912-11-19 00:00:00 NR 11.6071 135.411 main 1042 1002 __________P___ -1 11.6071 135.411 4 11 290
1912322N08146 1912 63 WP MM NOT_NAMED 1912-11-19 03:00:00 NR 11.7701 134.943 main 995 964 __________P___ -1 11.7701 134.943 4 9 290
1912322N08146 1912 63 WP MM NOT_NAMED 1912-11-19 06:00:00 NR 11.9231 134.529 main 954 913 __________P___ -1 11.9231 134.529 4 9 292
1912322N08146 1912 63 WP MM NOT_NAMED 1912-11-19 09:00:00 NR 12.1000 134.100 main 913 862 __________O___ -1 12.1000 134.100 4 10 292
1912322N08146 1912 63 WP MM NOT_NAMED 1912-11-19 12:00:00 NR 12.3135 133.565 main 862 802 __________P___ -1 12.3135 133.565 4 12 293
1912322N08146 1912 63 WP MM NOT_NAMED 1912-11-19 15:00:00 NR 12.5596 133.001 main 804 746 __________P___ -1 12.5596 133.001 4 13 296
1912322N08146 1912 63 WP MM NOT_NAMED 1912-11-19 18:00:00 NR 12.8509 132.412 main 749 692 __________P___ -1 12.8509 132.412 4 13 299
1912322N08146 1912 63 WP MM NOT_NAMED 1912-11-19 21:00:00 NR 13.2000 131.800 main 692 624 __________O___ -1 13.2000 131.800 4 15 299
1912322N08146 1912 63 WP MM NOT_NAMED 1912-11-20 00:00:00 NR 13.5615 131.107 main 627 567 __________P___ -1 13.5615 131.107 4 16 300
1912322N08146 1912 63 WP MM NOT_NAMED 1912-11-20 03:00:00 NR 13.9864 130.403 main 567 526 __________P___ -1 13.9864 130.403 4 16 305
1912322N08146 1912 63 WP MM NOT_NAMED 1912-11-20 06:00:00 NR 14.4929 129.748 main 522 510 __________P___ -1 14.4929 129.748 4 16 314
1912322N08146 1912 63 WP MM NOT_NAMED 1912-11-20 09:00:00 NR 15.1000 129.200 main 515 513 __________O___ -1 15.1000 129.200 4 17 325
1912322N08146 1912 63 WP MM NOT_NAMED 1912-11-20 12:00:00 NR 15.8519 128.759 main 523 513 __________P___ -1 15.8519 128.759 4 18 335
1912322N08146 1912 63 WP MM NOT_NAMED 1912-11-20 15:00:00 NR 16.6964 128.440 main 531 531 __________P___ -1 16.6964 128.440 4 18 344
1912322N08146 1912 63 WP MM NOT_NAMED 1912-11-20 18:00:00 NR 17.5678 128.250 main 587 580 __________P___ -1 17.5678 128.250 4 17 352
1912322N08146 1912 63 WP MM NOT_NAMED 1912-11-20 21:00:00 NR 18.4000 128.200 main 622 622 __________O___ -1 18.4000 128.200 4 16 0
1912322N08146 1912 63 WP MM NOT_NAMED 1912-11-21 00:00:00 NR 19.1120 128.259 main 636 636 __________P___ -1 19.1120 128.259 4 14 10
1912322N08146 1912 63 WP MM NOT_NAMED 1912-11-21 03:00:00 NR 19.7744 128.453 main 669 669 __________P___ -1 19.7744 128.453 4 14 20
1912322N08146 1912 63 WP MM NOT_NAMED 1912-11-21 06:00:00 NR 20.3996 128.747 main 707 707 __________P___ -1 20.3996 128.747 4 14 26
1912322N08146 1912 63 WP MM NOT_NAMED 1912-11-21 09:00:00 NR 21.0000 129.100 main 768 768 __________O___ -1 21.0000 129.100 4 13 28
1912322N08146 1912 63 WP MM NOT_NAMED 1912-11-21 12:00:00 NR 21.5181 129.378 main 818 818 __________P___ -1 21.5181 129.378 4 12 29
1912322N08146 1912 63 WP MM NOT_NAMED 1912-11-21 15:00:00 NR 22.0278 129.715 main 843 840 __________P___ -1 22.0278 129.715 4 13 33
1912322N08146 1912 63 WP MM NOT_NAMED 1912-11-21 18:00:00 NR 22.5986 130.143 main 861 859 __________P___ -1 22.5986 130.143 4 16 36
1912322N08146 1912 63 WP MM NOT_NAMED 1912-11-21 21:00:00 NR 23.3000 130.700 main 859 762 __________O___ -1 23.3000 130.700 4 20 36
1912322N08146 1912 63 WP MM NOT_NAMED 1912-11-22 00:00:00 NR 24.2188 131.420 main 762 664 __________P___ -1 24.2188 131.420 4 24 36
1912322N08146 1912 63 WP MM NOT_NAMED 1912-11-22 03:00:00 NR 25.2668 132.276 main 655 574 __________P___ -1 25.2668 132.276 4 27 37
1912322N08146 1912 63 WP MM NOT_NAMED 1912-11-22 06:00:00 NR 26.3811 133.219 main 568 517 __________P___ -1 26.3811 133.219 4 28 38
1912322N08146 1912 63 WP MM NOT_NAMED 1912-11-22 09:00:00 NR 27.5000 134.200 main 512 474 __________O___ -1 27.5000 134.200 4 27 37
1912322N08146 1912 63 WP MM NOT_NAMED 1912-11-22 12:00:00 NR 28.5030 135.027 main 473 446 __________P___ -1 28.5030 135.027 4 25 37
1912322N08146 1912 63 WP MM NOT_NAMED 1912-11-22 15:00:00 NR 29.5052 135.895 main 435 336 __________P___ -1 29.5052 135.895 4 26 39
1912322N08146 1912 63 WP MM NOT_NAMED 1912-11-22 18:00:00 NR 30.5304 136.889 main 339 291 __________P___ -1 30.5304 136.889 4 28 42
1912322N08146 1912 63 WP MM NOT_NAMED 1912-11-22 21:00:00 NR 31.6000 138.100 main 294 221 __________O___ -1 31.6000 138.100 4 32 46
1912322N08146 1912 63 WP MM NOT_NAMED 1912-11-23 00:00:00 NR 32.7443 139.594 main 224 162 __________P___ -1 32.7443 139.594 4 36 50
1912322N08146 1912 63 WP MM NOT_NAMED 1912-11-23 03:00:00 NR 33.9169 141.338 main 166 161 __________P___ -1 33.9169 141.338 4 39 53
1912322N08146 1912 63 WP MM NOT_NAMED 1912-11-23 06:00:00 NR 35.0804 143.288 main 227 227 __________P___ -1 35.0804 143.288 4 40 56
1912322N08146 1912 63 WP MM NOT_NAMED 1912-11-23 09:00:00 NR 36.2000 145.400 main 401 401 __________O___ -1 36.2000 145.400 4 41 58
1912322N08146 1912 63 WP MM NOT_NAMED 1912-11-23 12:00:00 NR 37.2503 147.632 main 536 536 __________P___ -1 37.2503 147.632 4 42 61
1912322N08146 1912 63 WP MM NOT_NAMED 1912-11-23 15:00:00 NR 38.2310 149.968 main 672 667 __________P___ -1 38.2310 149.968 4 42 63
1912322N08146 1912 63 WP MM NOT_NAMED 1912-11-23 18:00:00 NR 39.1463 152.397 main 734 733 __________P___ -1 39.1463 152.397 4 42 65
1912322N08146 1912 63 WP MM NOT_NAMED 1912-11-23 21:00:00 NR 40.0000 154.900 main 752 __________O___ -1 40.0000 154.900 4 42 66

Digital Typhoon Data and Search

About IBTrACS Database

This database is a web-friendly format of International Best Track Archive for Climate Stewardship (IBTrACS), a global best track data archive curated by NOAA dating back to 1842.

Updated: 2021-10-27